Harrod, Ohio
Current Conditions -  °F | °C
As of 4:53 AM on Sunday 25 Jan 2015 (Local Time) from KAOH Reporting Station
Few Clouds Few Clouds  
Wind Chill: 30°   Ceiling: Unl
Heat Index: 36°   Visibility: 7mi
Dew Point: 30°   Wind: 8mph
Humidity: 79%   Direction: 180°S
Pressure: 29.7"   Gusts: NA
Location:  40.71°N, 83.92°W
Report Text: KAOH 250953Z AUTO 18007KT 7SM FEW120 02/M01 A2970 RMK AO2 SLP065 T00221011
Loading
Personal Weather Stations






























Interactive Weather Map New forecast layout! Learn more

10-Day Weather Forecast

Advertisements
Track Severe Weather on mobile